Time;durP1;ratioP1;P1;durP2;ratioP2;P2;SDS_P1;SDS_P2;PMS_P1;PMS_P2;Temp;Humidity;BMP_temperature;BMP_pressure;BME280_temperature;BME280_humidity;BME280_pressure;Samples;Min_cycle;Max_cycle;Signal;HPM_P1;HPM_P2
2022/06/24 00:00:06;;;;;;;12.65;9.77;;;20.60;92.60;;;;;;5083801;28;20131;-69
2022/06/24 00:02:31;;;;;;;;;;;20.60;91.60;;;;;;5084670;28;20492;-69
2022/06/24 00:05:05;;;;;;;10.98;10.07;;;20.60;93.70;;;;;;5083194;28;19930;-69
2022/06/24 00:07:46;;;;;;;11.35;10.20;;;20.60;91.50;;;;;;5084252;28;20057;-70
2022/06/24 00:10:14;;;;;;;13.73;10.95;;;20.60;92.40;;;;;;5084590;28;20499;-69
2022/06/24 00:12:40;;;;;;;23.95;11.00;;;20.60;91.60;;;;;;5084615;28;20135;-69
2022/06/24 00:15:06;;;;;;;11.10;10.07;;;20.50;92.50;;;;;;5084298;28;20122;-69
2022/06/24 00:17:32;;;;;;;11.57;10.38;;;20.60;93.10;;;;;;5084133;28;20130;-69
2022/06/24 00:20:08;;;;;;;10.63;9.68;;;20.50;94.40;;;;;;5084603;28;20463;-70
2022/06/24 00:22:45;;;;;;;11.60;10.50;;;20.50;94.60;;;;;;5080579;28;20105;-69
2022/06/24 00:25:17;;;;;;;11.73;10.65;;;20.50;96.10;;;;;;5083731;28;20036;-69
2022/06/24 00:28:04;;;;;;;10.32;9.43;;;20.50;96.90;;;;;;5082928;28;20158;-69
2022/06/24 00:30:54;;;;;;;10.95;10.05;;;20.40;97.30;;;;;;5065810;28;20406;-69
2022/06/24 00:33:21;;;;;;;12.50;9.10;;;20.40;97.20;;;;;;5082778;28;20048;-69
2022/06/24 00:35:49;;;;;;;11.60;9.48;;;20.30;97.20;;;;;;5082165;28;20043;-69
2022/06/24 00:38:38;;;;;;;10.85;9.90;;;20.30;98.00;;;;;;5080757;28;20046;-69
2022/06/24 00:41:05;;;;;;;11.88;10.70;;;20.30;99.90;;;;;;5082604;28;20032;-69
2022/06/24 00:43:36;;;;;;;13.13;10.70;;;20.20;98.80;;;;;;5084706;28;20047;-69
2022/06/24 00:46:10;;;;;;;14.88;9.93;;;20.10;99.40;;;;;;5064956;28;20039;-69
2022/06/24 00:48:41;;;;;;;11.00;10.00;;;20.10;99.90;;;;;;5083234;28;20044;-69
2022/06/24 00:51:07;;;;;;;12.82;11.55;;;20.10;99.90;;;;;;5046177;28;20036;-69
2022/06/24 00:53:40;;;;;;;12.48;11.27;;;20.10;99.90;;;;;;5083986;28;20036;-69
2022/06/24 00:56:08;;;;;;;12.23;10.45;;;20.00;99.90;;;;;;5079708;28;20750;-69
2022/06/24 00:58:34;;;;;;;11.68;10.63;;;19.90;99.90;;;;;;5081362;28;20047;-69
2022/06/24 01:01:01;;;;;;;11.32;10.32;;;19.90;99.90;;;;;;5084547;28;20043;-69
2022/06/24 01:03:40;;;;;;;15.88;11.82;;;19.90;99.90;;;;;;5082244;28;20119;-69
2022/06/24 01:06:07;;;;;;;11.70;10.80;;;19.80;99.90;;;;;;5079878;28;20090;-69
2022/06/24 01:08:33;;;;;;;19.90;11.63;;;19.80;99.90;;;;;;5062614;28;20041;-69
2022/06/24 01:10:59;;;;;;;14.45;10.48;;;19.60;99.90;;;;;;5082673;28;20039;-69
2022/06/24 01:13:25;;;;;;;12.30;10.90;;;19.60;99.90;;;;;;5079757;28;20032;-69
2022/06/24 01:15:52;;;;;;;17.00;11.75;;;19.50;99.90;;;;;;5082236;28;20093;-69
2022/06/24 01:18:17;;;;;;;12.18;11.05;;;19.50;99.90;;;;;;5084737;28;20530;-69
2022/06/24 01:20:44;;;;;;;14.02;12.60;;;19.50;99.90;;;;;;5082714;28;20044;-69
2022/06/24 01:23:10;;;;;;;12.35;11.27;;;19.40;99.90;;;;;;5082749;28;20520;-69
2022/06/24 01:25:36;;;;;;;12.90;11.55;;;19.40;99.90;;;;;;5081746;28;20046;-69
2022/06/24 01:28:01;;;;;;;12.40;11.23;;;19.40;99.90;;;;;;5083859;28;20496;-69
2022/06/24 01:30:28;;;;;;;21.05;11.95;;;19.40;99.90;;;;;;5064854;28;20054;-69
2022/06/24 01:32:54;;;;;;;12.88;10.75;;;19.30;99.90;;;;;;5083029;28;20615;-69
2022/06/24 01:35:20;;;;;;;11.00;10.10;;;19.30;99.90;;;;;;5081386;28;20074;-69
2022/06/24 01:37:46;;;;;;;13.13;11.77;;;19.30;99.90;;;;;;5063833;28;20074;-69
2022/06/24 01:40:12;;;;;;;11.75;10.57;;;19.30;99.90;;;;;;5081600;28;20039;-69
2022/06/24 01:42:38;;;;;;;12.52;10.80;;;19.30;99.90;;;;;;5082981;28;20154;-69
2022/06/24 01:45:04;;;;;;;12.00;10.80;;;19.30;99.90;;;;;;5081042;28;20040;-69
2022/06/24 01:47:30;;;;;;;11.55;10.52;;;19.20;99.90;;;;;;5065335;28;20549;-69
2022/06/24 01:49:56;;;;;;;11.85;10.82;;;19.20;99.90;;;;;;5081310;28;20126;-69
2022/06/24 01:52:21;;;;;;;11.80;10.65;;;19.20;99.90;;;;;;5082761;28;20040;-69
2022/06/24 01:54:47;;;;;;;11.80;10.85;;;19.10;99.90;;;;;;5082191;28;20040;-69
2022/06/24 01:57:13;;;;;;;12.73;11.52;;;19.10;99.90;;;;;;5083076;28;20036;-69
2022/06/24 01:59:39;;;;;;;13.70;12.27;;;19.00;99.90;;;;;;5082176;28;20040;-69
2022/06/24 02:02:04;;;;;;;13.95;12.02;;;19.00;99.90;;;;;;5080730;28;20452;-68
2022/06/24 02:04:30;;;;;;;13.27;11.52;;;19.00;99.90;;;;;;5080669;28;20036;-69
2022/06/24 02:06:56;;;;;;;13.07;11.52;;;18.90;99.90;;;;;;5080599;28;20052;-69
2022/06/24 02:09:21;;;;;;;12.65;11.50;;;18.90;99.90;;;;;;5083717;28;20071;-69
2022/06/24 02:14:32;;;;;;;12.95;11.85;;;18.90;99.90;;;;;;5083348;28;20083;-69
2022/06/24 02:16:59;;;;;;;14.00;11.40;;;18.80;99.90;;;;;;5083231;28;20123;-69
2022/06/24 02:19:25;;;;;;;12.93;11.65;;;18.70;99.90;;;;;;5082838;28;20108;-69
2022/06/24 02:21:50;;;;;;;12.35;11.27;;;18.70;99.90;;;;;;5078001;28;20496;-69
2022/06/24 02:24:16;;;;;;;13.10;11.88;;;18.70;99.90;;;;;;5062012;28;20127;-69
2022/06/24 02:26:43;;;;;;;11.85;10.80;;;18.60;99.90;;;;;;5083196;28;20771;-69
2022/06/24 02:29:10;;;;;;;11.82;10.90;;;18.60;99.90;;;;;;5079086;28;20040;-69
2022/06/24 02:31:37;;;;;;;14.13;12.73;;;18.60;99.90;;;;;;5082009;28;20044;-69
2022/06/24 02:34:03;;;;;;;13.00;11.80;;;18.60;99.90;;;;;;5082868;28;20119;-69
2022/06/24 02:36:29;;;;;;;13.00;11.85;;;18.50;99.90;;;;;;5080213;28;20389;-69
2022/06/24 02:38:54;;;;;;;12.60;11.50;;;18.50;99.90;;;;;;5060302;28;20024;-69
2022/06/24 02:41:20;;;;;;;15.65;12.38;;;18.50;99.90;;;;;;5080649;28;20064;-69
2022/06/24 02:43:46;;;;;;;16.95;13.23;;;18.40;99.90;;;;;;5079876;28;20040;-69
2022/06/24 02:46:16;;;;;;;17.05;13.13;;;18.40;99.90;;;;;;5064719;28;20068;-69
2022/06/24 02:48:43;;;;;;;18.25;14.32;;;18.40;99.90;;;;;;5081811;28;20094;-69
2022/06/24 02:51:11;;;;;;;13.40;11.82;;;18.30;99.90;;;;;;5080469;28;20050;-69
2022/06/24 02:53:37;;;;;;;16.65;14.15;;;18.30;99.90;;;;;;5081817;28;20044;-69
2022/06/24 02:56:05;;;;;;;18.83;13.38;;;18.30;99.90;;;;;;5086551;28;20039;-69
2022/06/24 02:58:32;;;;;;;16.45;13.65;;;18.30;99.90;;;;;;5085678;28;20169;-68
2022/06/24 03:00:58;;;;;;;17.63;13.77;;;18.30;99.90;;;;;;5085544;28;20036;-69
2022/06/24 03:03:24;;;;;;;13.30;11.95;;;18.30;99.90;;;;;;5084322;28;20040;-69
2022/06/24 03:05:50;;;;;;;14.43;12.07;;;18.30;99.90;;;;;;5065812;28;20040;-69
2022/06/24 03:08:18;;;;;;;16.30;14.13;;;18.30;99.90;;;;;;5086109;28;20044;-69
2022/06/24 03:10:44;;;;;;;15.18;13.65;;;18.30;99.90;;;;;;5083685;28;20043;-69
2022/06/24 03:13:11;;;;;;;14.50;12.95;;;18.20;99.90;;;;;;5083206;28;20040;-69
2022/06/24 03:15:37;;;;;;;20.48;14.05;;;18.30;99.90;;;;;;5089564;28;20040;-69
2022/06/24 03:18:04;;;;;;;12.98;11.73;;;18.30;99.90;;;;;;5081806;28;20032;-69
2022/06/24 03:20:29;;;;;;;16.25;13.00;;;18.30;99.90;;;;;;5083410;28;20142;-69
2022/06/24 03:22:55;;;;;;;15.52;13.93;;;18.40;99.90;;;;;;5081337;28;20569;-68
2022/06/24 03:25:21;;;;;;;14.57;13.18;;;18.30;99.90;;;;;;5083031;28;20404;-69
2022/06/24 03:27:47;;;;;;;18.63;13.80;;;18.40;99.90;;;;;;5087480;28;20397;-69
2022/06/24 03:30:13;;;;;;;13.02;11.68;;;18.40;99.90;;;;;;5082219;28;20047;-69
2022/06/24 03:32:39;;;;;;;13.75;11.88;;;18.40;99.90;;;;;;5084546;28;20086;-69
2022/06/24 03:35:05;;;;;;;16.30;13.55;;;18.40;99.90;;;;;;5082281;28;20501;-69
2022/06/24 03:37:32;;;;;;;15.45;14.05;;;18.40;99.90;;;;;;5081616;28;20040;-69
2022/06/24 03:39:59;;;;;;;12.45;11.23;;;18.40;99.90;;;;;;5082608;28;20126;-69
2022/06/24 03:42:25;;;;;;;13.35;12.32;;;18.40;99.90;;;;;;5084162;28;20503;-69
2022/06/24 03:44:51;;;;;;;16.13;13.30;;;18.40;99.90;;;;;;5083732;28;20052;-69
2022/06/24 03:47:17;;;;;;;13.27;11.98;;;18.50;99.90;;;;;;5082532;28;20447;-69
2022/06/24 03:49:43;;;;;;;15.77;13.93;;;18.50;99.90;;;;;;5083076;28;20126;-69
2022/06/24 03:52:09;;;;;;;15.63;14.23;;;18.40;99.90;;;;;;5084813;28;20040;-69
2022/06/24 03:54:35;;;;;;;14.27;12.98;;;18.40;99.90;;;;;;5084491;28;20097;-69
2022/06/24 03:57:01;;;;;;;32.65;14.70;;;18.40;99.90;;;;;;5081774;28;20052;-69
2022/06/24 03:59:27;;;;;;;15.13;13.73;;;18.40;99.90;;;;;;5085609;28;20042;-69
2022/06/24 04:01:53;;;;;;;14.73;13.38;;;18.40;99.90;;;;;;5084337;28;20032;-69
2022/06/24 04:04:19;;;;;;;18.85;13.90;;;18.40;99.90;;;;;;5063447;28;20080;-68
2022/06/24 04:06:45;;;;;;;18.67;15.68;;;18.40;99.90;;;;;;5081888;28;20276;-69
2022/06/24 04:09:14;;;;;;;16.08;13.52;;;18.50;99.90;;;;;;5080150;28;20178;-68
2022/06/24 04:11:39;;;;;;;17.63;15.82;;;18.50;99.90;;;;;;5083002;28;20036;-69
2022/06/24 04:14:05;;;;;;;17.35;15.40;;;18.40;99.90;;;;;;5084194;28;20043;-69
2022/06/24 04:16:31;;;;;;;18.48;16.05;;;18.40;99.90;;;;;;5083640;28;20047;-68
2022/06/24 04:18:56;;;;;;;16.65;14.95;;;18.40;99.90;;;;;;5082093;28;20047;-68
2022/06/24 04:21:22;;;;;;;17.23;15.50;;;18.50;99.90;;;;;;5086160;28;20094;-69
2022/06/24 04:23:49;;;;;;;27.88;15.52;;;18.50;99.90;;;;;;5085843;28;20040;-69
2022/06/24 04:26:16;;;;;;;16.48;14.65;;;18.70;99.90;;;;;;5081900;28;20036;-69
2022/06/24 04:28:42;;;;;;;14.93;13.52;;;18.70;99.90;;;;;;5084238;28;20070;-69
2022/06/24 04:31:08;;;;;;;18.90;14.93;;;18.70;99.90;;;;;;5083744;28;20097;-69
2022/06/24 04:33:35;;;;;;;24.00;15.55;;;18.80;99.90;;;;;;5084226;28;20036;-69
2022/06/24 04:36:11;;;;;;;14.20;12.80;;;18.90;99.90;;;;;;5081950;28;20102;-70
2022/06/24 04:38:36;;;;;;;17.27;14.98;;;18.90;99.90;;;;;;5081124;28;20052;-70
2022/06/24 04:41:11;;;;;;;15.80;14.18;;;19.00;99.90;;;;;;5082886;28;21187;-69
2022/06/24 04:43:36;;;;;;;17.80;15.98;;;19.10;99.90;;;;;;5084573;28;20079;-69
2022/06/24 04:46:02;;;;;;;17.52;15.80;;;19.10;99.90;;;;;;5083067;28;20170;-69
2022/06/24 04:48:27;;;;;;;17.75;15.98;;;19.10;99.90;;;;;;5081107;28;20040;-68
2022/06/24 04:50:53;;;;;;;15.95;14.52;;;19.10;99.90;;;;;;5083852;28;20048;-68
2022/06/24 04:53:19;;;;;;;15.77;14.05;;;19.10;99.90;;;;;;5083993;28;20036;-68
2022/06/24 04:55:44;;;;;;;14.85;13.20;;;19.20;99.90;;;;;;5080004;28;20412;-68
2022/06/24 04:58:10;;;;;;;14.32;13.13;;;19.20;99.90;;;;;;5084014;28;20044;-68
2022/06/24 05:00:38;;;;;;;15.02;13.73;;;19.20;99.90;;;;;;5084075;28;20051;-68
2022/06/24 05:03:03;;;;;;;15.43;13.27;;;19.30;99.90;;;;;;5079422;28;20044;-68
2022/06/24 05:05:29;;;;;;;16.45;12.98;;;19.30;99.90;;;;;;5058015;28;20052;-68
2022/06/24 05:07:54;;;;;;;14.82;13.35;;;19.40;99.90;;;;;;5061313;28;20505;-68
2022/06/24 05:10:20;;;;;;;16.60;14.90;;;19.50;99.90;;;;;;5060743;28;20044;-68
2022/06/24 05:12:46;;;;;;;18.30;15.50;;;19.60;99.90;;;;;;5062631;28;20195;-68
2022/06/24 05:15:11;;;;;;;16.67;13.77;;;19.60;99.90;;;;;;5059377;28;20085;-68
2022/06/24 05:17:37;;;;;;;17.92;15.13;;;19.80;99.90;;;;;;5061078;28;20052;-68
2022/06/24 05:20:03;;;;;;;21.98;16.63;;;19.90;99.90;;;;;;5060204;28;20039;-68
2022/06/24 05:22:29;;;;;;;21.38;19.23;;;20.00;99.90;;;;;;5061942;28;20135;-68
2022/06/24 05:24:54;;;;;;;24.33;19.23;;;20.00;99.90;;;;;;5060339;28;20044;-68
2022/06/24 05:27:20;;;;;;;22.17;18.90;;;20.20;99.90;;;;;;5065732;28;20465;-68
2022/06/24 05:29:46;;;;;;;24.38;19.77;;;20.20;99.90;;;;;;5061105;28;20668;-68
2022/06/24 05:32:11;;;;;;;25.73;20.48;;;20.30;99.90;;;;;;5064748;28;20119;-68
2022/06/24 05:34:37;;;;;;;26.27;22.75;;;20.30;99.90;;;;;;5068477;28;20078;-68
2022/06/24 05:37:03;;;;;;;30.13;20.75;;;20.30;99.90;;;;;;5064526;28;20048;-68
2022/06/24 05:39:29;;;;;;;24.13;19.65;;;20.30;99.90;;;;;;5059927;28;20072;-68
2022/06/24 05:41:55;;;;;;;24.20;21.33;;;20.30;99.90;;;;;;5063094;28;20036;-68
2022/06/24 05:44:20;;;;;;;33.25;23.20;;;20.30;99.90;;;;;;5065299;28;20051;-68
2022/06/24 05:46:46;;;;;;;26.95;22.17;;;20.30;99.90;;;;;;5059225;28;20404;-68
2022/06/24 05:49:12;;;;;;;37.63;24.92;;;20.30;99.90;;;;;;5059278;28;20631;-68
2022/06/24 05:51:37;;;;;;;36.08;24.40;;;20.20;99.90;;;;;;5059229;28;20032;-67
2022/06/24 05:56:48;;;;;;;30.17;23.65;;;20.10;99.90;;;;;;5060768;28;20548;-66
2022/06/24 05:59:14;;;;;;;31.10;25.45;;;20.10;99.90;;;;;;5059855;28;20083;-66
2022/06/24 06:01:41;;;;;;;33.45;24.98;;;20.10;99.90;;;;;;5059579;28;20044;-67
2022/06/24 06:04:06;;;;;;;42.30;24.60;;;20.10;99.90;;;;;;5059343;28;20123;-66
2022/06/24 06:06:34;;;;;;;29.23;24.50;;;20.10;99.90;;;;;;5073303;28;20051;-66
2022/06/24 06:09:00;;;;;;;36.22;24.88;;;20.10;99.90;;;;;;5079225;28;20428;-66
2022/06/24 06:11:26;;;;;;;35.95;27.42;;;20.10;99.90;;;;;;5077726;28;20126;-66
2022/06/24 06:13:54;;;;;;;33.13;27.90;;;20.10;99.90;;;;;;5079851;28;20039;-66
2022/06/24 06:16:22;;;;;;;39.13;31.27;;;20.00;99.90;;;;;;5084207;28;20052;-66
2022/06/24 06:18:48;;;;;;;44.33;30.02;;;20.00;99.90;;;;;;5079415;28;20048;-66
2022/06/24 06:21:16;;;;;;;37.10;29.83;;;20.00;99.90;;;;;;5079543;28;20047;-66
2022/06/24 06:23:43;;;;;;;35.85;29.42;;;20.00;99.90;;;;;;5060820;28;20048;-67
2022/06/24 06:26:10;;;;;;;39.70;29.80;;;20.00;99.90;;;;;;5079894;28;20035;-66
2022/06/24 06:28:37;;;;;;;36.78;30.10;;;20.00;99.90;;;;;;5084599;28;20047;-66
2022/06/24 06:31:03;;;;;;;39.85;31.88;;;20.00;99.90;;;;;;5084429;28;20032;-66
2022/06/24 06:33:31;;;;;;;52.47;33.15;;;20.00;99.90;;;;;;5079945;28;20032;-66
2022/06/24 06:36:06;;;;;;;44.72;32.47;;;20.10;99.90;;;;;;5065331;28;20325;-66
2022/06/24 06:38:32;;;;;;;44.20;36.30;;;20.10;99.90;;;;;;5082697;28;20040;-66
2022/06/24 06:40:58;;;;;;;37.42;30.42;;;20.00;99.90;;;;;;5083090;28;20093;-66
2022/06/24 06:43:24;;;;;;;34.97;27.77;;;20.00;99.90;;;;;;5084747;28;20039;-66
2022/06/24 06:45:51;;;;;;;34.47;27.77;;;20.00;99.90;;;;;;5079287;28;20082;-66
2022/06/24 06:48:16;;;;;;;37.10;25.88;;;20.10;99.90;;;;;;5084125;28;20032;-67
2022/06/24 06:50:42;;;;;;;40.35;26.80;;;20.10;99.90;;;;;;5082900;28;20112;-66
2022/06/24 06:53:08;;;;;;;43.47;26.52;;;20.20;99.90;;;;;;5081297;28;20169;-66
2022/06/24 06:55:33;;;;;;;40.38;26.10;;;20.20;99.90;;;;;;5080401;28;20151;-66
2022/06/24 06:57:59;;;;;;;37.85;24.50;;;20.20;99.90;;;;;;5081901;28;20497;-66
2022/06/24 07:00:25;;;;;;;36.53;25.08;;;20.10;99.90;;;;;;5080995;28;20111;-66
2022/06/24 07:02:50;;;;;;;35.78;24.58;;;20.00;99.90;;;;;;5079053;28;20448;-66
2022/06/24 07:05:16;;;;;;;27.48;21.92;;;20.00;99.90;;;;;;5076452;28;20417;-66
2022/06/24 07:07:42;;;;;;;33.63;26.00;;;20.00;99.90;;;;;;5076123;28;20088;-66
2022/06/24 07:10:07;;;;;;;32.67;24.23;;;20.00;99.90;;;;;;5079041;28;20170;-66
2022/06/24 07:12:33;;;;;;;42.55;23.95;;;20.00;99.90;;;;;;5077868;28;20046;-66
2022/06/24 07:14:59;;;;;;;32.20;23.73;;;20.00;99.90;;;;;;5081429;28;20047;-66
2022/06/24 07:17:24;;;;;;;29.73;22.67;;;20.00;99.90;;;;;;5078143;28;20076;-66
2022/06/24 07:19:50;;;;;;;25.17;22.42;;;20.00;99.90;;;;;;5075273;28;20056;-66
2022/06/24 07:22:15;;;;;;;34.38;23.85;;;20.00;99.90;;;;;;5076202;28;20055;-66
2022/06/24 07:24:41;;;;;;;24.67;20.65;;;20.00;99.90;;;;;;5077861;28;20067;-66
2022/06/24 07:27:09;;;;;;;27.15;21.30;;;20.00;99.90;;;;;;5074403;28;20379;-66
2022/06/24 07:29:36;;;;;;;28.88;21.42;;;20.00;99.90;;;;;;5078755;28;20040;-66
2022/06/24 07:32:05;;;;;;;24.45;20.33;;;20.00;99.90;;;;;;5078674;28;20432;-66
2022/06/24 07:34:32;;;;;;;28.65;21.75;;;20.10;99.90;;;;;;5076190;28;20052;-66
2022/06/24 07:37:00;;;;;;;32.42;21.83;;;20.10;99.90;;;;;;5075245;28;20055;-66
2022/06/24 07:39:27;;;;;;;28.67;22.40;;;20.10;99.90;;;;;;5078026;28;20051;-66
2022/06/24 07:41:53;;;;;;;29.88;19.83;;;20.10;99.90;;;;;;5079537;28;20044;-66
2022/06/24 07:44:19;;;;;;;32.30;22.38;;;20.20;99.90;;;;;;5061447;28;20116;-67
2022/06/24 07:46:45;;;;;;;23.63;21.10;;;20.10;99.90;;;;;;5077419;28;20098;-66
2022/06/24 07:49:11;;;;;;;29.23;22.58;;;20.20;99.90;;;;;;5057698;28;20048;-67
2022/06/24 07:51:37;;;;;;;30.10;24.42;;;20.20;99.90;;;;;;5077928;28;20130;-67
2022/06/24 07:54:05;;;;;;;33.83;22.90;;;20.20;99.90;;;;;;5060446;28;20488;-67
2022/06/24 07:59:16;;;;;;;23.98;21.35;;;20.20;99.90;;;;;;5062694;28;20051;-67
2022/06/24 08:01:42;;;;;;;27.13;21.70;;;20.10;99.90;;;;;;5082071;28;20036;-67
2022/06/24 08:04:08;;;;;;;24.98;19.38;;;20.10;99.90;;;;;;5077416;28;20455;-67
2022/06/24 08:06:39;;;;;;;30.00;20.65;;;20.10;99.90;;;;;;5080742;28;20054;-67
2022/06/24 08:09:06;;;;;;;28.52;18.10;;;20.20;99.90;;;;;;5075819;28;20076;-66
2022/06/24 08:11:34;;;;;;;20.77;18.25;;;20.20;99.90;;;;;;5076255;28;20515;-67
2022/06/24 08:14:00;;;;;;;25.08;20.00;;;20.20;99.90;;;;;;5077364;28;20048;-66
2022/06/24 08:16:25;;;;;;;45.55;19.48;;;20.20;99.90;;;;;;5073507;28;20032;-67
2022/06/24 08:18:52;;;;;;;22.92;19.70;;;20.30;99.90;;;;;;5074225;28;20079;-67
2022/06/24 08:21:18;;;;;;;20.08;17.52;;;20.20;99.90;;;;;;5056695;28;20135;-67
2022/06/24 08:23:44;;;;;;;19.67;17.67;;;20.30;99.90;;;;;;5076216;28;20048;-66
2022/06/24 08:26:10;;;;;;;21.05;17.00;;;20.40;99.90;;;;;;5056260;28;20044;-66
2022/06/24 08:28:35;;;;;;;24.05;18.27;;;20.40;99.90;;;;;;5056063;28;20043;-67
2022/06/24 08:31:01;;;;;;;17.63;15.65;;;20.40;99.90;;;;;;5080946;28;20044;-67
2022/06/24 08:33:27;;;;;;;22.48;18.13;;;20.50;99.90;;;;;;5073526;28;20037;-67
2022/06/24 08:35:53;;;;;;;17.95;16.17;;;20.50;99.90;;;;;;5078650;28;20413;-67
2022/06/24 08:38:19;;;;;;;20.27;16.70;;;20.50;99.90;;;;;;5075515;28;20829;-67
2022/06/24 08:40:49;;;;;;;17.08;15.30;;;20.50;99.90;;;;;;5078931;28;20040;-67
2022/06/24 08:43:16;;;;;;;24.23;16.95;;;20.50;99.90;;;;;;5076059;28;20061;-68
2022/06/24 08:45:42;;;;;;;20.63;18.10;;;20.50;99.90;;;;;;5076319;28;20090;-67
2022/06/24 08:48:09;;;;;;;24.00;19.42;;;20.50;99.90;;;;;;5074692;28;20048;-66
2022/06/24 08:50:35;;;;;;;19.42;17.35;;;20.50;99.90;;;;;;5075351;28;20064;-66
2022/06/24 08:53:06;;;;;;;23.00;15.30;;;20.40;99.90;;;;;;5081910;28;20151;-66
2022/06/24 08:55:41;;;;;;;23.10;16.80;;;20.50;99.90;;;;;;5063015;28;20040;-65
2022/06/24 08:58:09;;;;;;;27.42;18.35;;;20.50;99.90;;;;;;5080872;28;20032;-66
2022/06/24 09:00:35;;;;;;;23.55;15.85;;;20.50;99.90;;;;;;5081315;28;20100;-66
2022/06/24 09:03:03;;;;;;;20.55;16.33;;;20.50;99.90;;;;;;5079596;28;20044;-67
2022/06/24 09:05:32;;;;;;;23.70;18.25;;;20.60;99.90;;;;;;5080450;28;20086;-66
2022/06/24 09:08:05;;;;;;;21.50;17.33;;;20.60;99.90;;;;;;5080073;28;20120;-66
2022/06/24 09:10:31;;;;;;;24.23;18.92;;;20.70;99.90;;;;;;5063082;28;20083;-67
2022/06/24 09:12:57;;;;;;;20.02;17.83;;;20.70;99.90;;;;;;5079821;28;20125;-67
2022/06/24 09:15:23;;;;;;;24.58;21.08;;;20.80;99.90;;;;;;5060545;28;20902;-65
2022/06/24 09:17:49;;;;;;;19.98;17.70;;;20.80;99.90;;;;;;5041994;28;20148;-65
2022/06/24 09:20:24;;;;;;;22.80;20.52;;;20.90;99.90;;;;;;5077566;28;20892;-66
2022/06/24 09:23:05;;;;;;;20.88;18.00;;;20.90;99.90;;;;;;5060535;28;20047;-66
2022/06/24 09:25:48;;;;;;;21.10;18.88;;;21.00;99.90;;;;;;5059073;28;20140;-66
2022/06/24 09:28:28;;;;;;;27.02;21.40;;;21.00;99.90;;;;;;5078473;28;20124;-66
2022/06/24 09:31:07;;;;;;;18.92;16.98;;;21.00;99.90;;;;;;5081882;28;20072;-66
2022/06/24 09:33:41;;;;;;;21.48;19.20;;;21.10;99.90;;;;;;5078209;28;20093;-66
2022/06/24 09:36:10;;;;;;;22.30;19.17;;;21.00;99.90;;;;;;5079752;28;20382;-66
2022/06/24 09:39:05;;;;;;;23.40;20.95;;;21.00;99.90;;;;;;5080882;28;20035;-65
2022/06/24 09:41:41;;;;;;;23.10;20.67;;;21.00;99.90;;;;;;5080269;28;20059;-65
2022/06/24 09:44:07;;;;;;;22.25;18.95;;;20.90;99.90;;;;;;5081496;28;20087;-65
2022/06/24 09:46:32;;;;;;;24.13;20.33;;;20.90;99.90;;;;;;5078671;28;20517;-65
2022/06/24 09:49:03;;;;;;;23.25;20.85;;;20.80;99.90;;;;;;5080999;28;20056;-65
2022/06/24 09:51:29;;;;;;;25.35;22.65;;;20.80;99.90;;;;;;5080480;28;20040;-65
2022/06/24 09:53:55;;;;;;;24.40;20.90;;;20.70;99.90;;;;;;5080042;28;20035;-66
2022/06/24 09:56:22;;;;;;;25.02;22.20;;;20.80;99.90;;;;;;5080368;28;20043;-65
2022/06/24 10:01:35;;;;;;;24.05;19.30;;;20.70;99.90;;;;;;5079650;28;20040;-65
2022/06/24 10:04:04;;;;;;;20.83;18.63;;;20.70;99.90;;;;;;5077298;28;20048;-66
2022/06/24 10:06:35;;;;;;;22.58;20.17;;;20.70;99.90;;;;;;5079937;28;20060;-66
2022/06/24 10:09:04;;;;;;;34.30;23.98;;;20.70;99.90;;;;;;5083158;28;20139;-65
2022/06/24 10:11:33;;;;;;;42.42;23.13;;;20.70;99.90;;;;;;5078351;28;20044;-67
2022/06/24 10:14:00;;;;;;;20.10;10.63;;;20.50;99.90;;;;;;5082798;28;20488;-68
2022/06/24 10:16:26;;;;;;;14.93;6.18;;;20.20;99.90;;;;;;5081445;28;20067;-68
2022/06/24 10:18:53;;;;;;;15.80;3.97;;;20.00;99.90;;;;;;5081641;28;20501;-68
2022/06/24 10:21:19;;;;;;;8.52;5.30;;;19.80;99.90;;;;;;5082907;28;20044;-68
2022/06/24 10:23:50;;;;;;;10.45;6.00;;;19.70;99.90;;;;;;5079089;28;20418;-67
2022/06/24 10:26:30;;;;;;;10.25;6.15;;;19.50;99.90;;;;;;5059490;28;20512;-67
2022/06/24 10:29:04;;;;;;;9.82;7.30;;;19.40;99.90;;;;;;5078870;28;20032;-67
2022/06/24 10:31:42;;;;;;;10.48;8.00;;;19.40;99.90;;;;;;5082960;28;20113;-68
2022/06/24 10:34:32;;;;;;;12.02;8.45;;;19.30;99.90;;;;;;5082098;28;20040;-68
2022/06/24 10:37:05;;;;;;;15.35;9.82;;;19.40;99.90;;;;;;5070186;28;20117;-68
2022/06/24 10:39:44;;;;;;;19.13;10.25;;;19.30;99.90;;;;;;5080583;28;20048;-68
2022/06/24 10:42:11;;;;;;;11.05;9.63;;;19.30;99.90;;;;;;5084278;28;20115;-68
2022/06/24 10:44:49;;;;;;;13.60;10.52;;;19.30;99.90;;;;;;5063227;28;20528;-68
2022/06/24 10:47:15;;;;;;;13.95;10.90;;;19.30;99.90;;;;;;5080152;28;20056;-67
2022/06/24 10:49:55;;;;;;;15.27;10.65;;;19.30;99.90;;;;;;5083060;28;20063;-67
2022/06/24 10:52:45;;;;;;;13.88;10.55;;;19.30;99.90;;;;;;5080116;28;20407;-68
2022/06/24 10:55:29;;;;;;;11.73;10.50;;;19.40;99.90;;;;;;5080599;28;20048;-68
2022/06/24 10:57:58;;;;;;;21.00;10.95;;;19.30;99.90;;;;;;5082307;28;20330;-67
2022/06/24 11:00:39;;;;;;;21.20;10.90;;;19.20;99.90;;;;;;5079612;28;20082;-67
2022/06/24 11:03:04;;;;;;;11.63;9.90;;;19.10;99.90;;;;;;5081487;28;20044;-67
2022/06/24 11:05:41;;;;;;;13.82;9.68;;;19.10;99.90;;;;;;5080352;28;20708;-67
2022/06/24 11:08:12;;;;;;;12.48;8.70;;;19.10;99.90;;;;;;5081102;28;20063;-66
2022/06/24 11:10:39;;;;;;;17.05;8.20;;;19.10;99.90;;;;;;5080876;28;20039;-67
2022/06/24 11:13:04;;;;;;;10.02;8.23;;;19.00;99.90;;;;;;5082148;28;20032;-67
2022/06/24 11:15:34;;;;;;;13.18;7.82;;;18.90;99.90;;;;;;5083321;28;20472;-66
2022/06/24 11:18:17;;;;;;;8.27;7.53;;;18.90;99.90;;;;;;5082073;28;20048;-66
2022/06/24 11:21:09;;;;;;;13.55;8.40;;;18.90;99.90;;;;;;5087084;28;20626;-66
2022/06/24 11:23:37;;;;;;;11.65;8.35;;;18.90;99.90;;;;;;5075115;28;20471;-66
2022/06/24 11:26:04;;;;;;;;;;;18.80;99.90;;;;;;5083043;28;20036;-67
2022/06/24 11:28:38;;;;;;;9.07;7.55;;;18.70;99.90;;;;;;5080719;28;19928;-67
2022/06/24 11:31:33;;;;;;;10.98;9.07;;;18.70;99.90;;;;;;5081965;28;20044;-67
2022/06/24 11:34:05;;;;;;;9.00;8.10;;;18.70;99.90;;;;;;5063480;28;20064;-67
2022/06/24 11:36:32;;;;;;;9.10;8.18;;;18.70;99.90;;;;;;5087776;28;20075;-67
2022/06/24 11:39:05;;;;;;;11.38;8.02;;;18.70;99.90;;;;;;5080816;28;20049;-66
2022/06/24 11:41:36;;;;;;;10.27;8.27;;;18.80;99.90;;;;;;5081232;28;20516;-67
2022/06/24 11:44:03;;;;;;;9.38;7.65;;;18.90;99.90;;;;;;5081517;28;20074;-66
2022/06/24 11:46:32;;;;;;;10.77;9.18;;;18.90;99.90;;;;;;5083987;28;20036;-67
2022/06/24 11:49:11;;;;;;;16.60;10.30;;;19.00;99.90;;;;;;5079315;28;20044;-66
2022/06/24 11:51:39;;;;;;;11.50;8.32;;;19.10;99.90;;;;;;5083823;28;20044;-67
2022/06/24 11:54:08;;;;;;;9.05;8.15;;;19.20;99.90;;;;;;5082336;28;20048;-66
2022/06/24 11:56:38;;;;;;;11.07;8.52;;;19.40;99.90;;;;;;5082464;28;20043;-66
2022/06/24 11:59:05;;;;;;;8.93;8.23;;;19.50;99.90;;;;;;5081990;28;20536;-66
2022/06/24 12:01:32;;;;;;;12.57;10.38;;;19.60;99.90;;;;;;5079384;28;20386;-67
2022/06/24 12:04:06;;;;;;;16.73;9.27;;;19.60;99.90;;;;;;5082630;28;20116;-65
2022/06/24 12:06:36;;;;;;;10.45;9.02;;;19.70;99.90;;;;;;5082744;28;20067;-66
2022/06/24 12:09:02;;;;;;;12.05;10.73;;;19.80;99.90;;;;;;5081556;28;20489;-66
2022/06/24 12:11:28;;;;;;;9.68;8.77;;;19.80;99.90;;;;;;5083881;28;20044;-66
2022/06/24 12:14:03;;;;;;;13.07;9.73;;;19.90;99.90;;;;;;5084515;28;20093;-66
2022/06/24 12:17:08;;;;;;;10.18;9.25;;;19.90;99.90;;;;;;5080179;28;20089;-66
2022/06/24 12:19:58;;;;;;;14.68;11.00;;;19.90;99.90;;;;;;5083289;28;20047;-65
2022/06/24 12:22:24;;;;;;;12.50;11.02;;;20.00;99.90;;;;;;5081206;28;20039;-66
2022/06/24 12:25:06;;;;;;;12.98;11.70;;;20.10;99.90;;;;;;5081281;28;20043;-65
2022/06/24 12:27:37;;;;;;;13.30;11.95;;;20.20;99.90;;;;;;5079395;28;20040;-66
2022/06/24 12:30:05;;;;;;;13.20;10.02;;;20.30;99.90;;;;;;5081829;28;20116;-65
2022/06/24 12:32:50;;;;;;;13.25;10.95;;;20.40;99.90;;;;;;5061876;28;20048;-66
2022/06/24 12:35:37;;;;;;;14.40;11.68;;;20.50;99.90;;;;;;5078542;28;20054;-66
2022/06/24 12:38:05;;;;;;;13.07;10.95;;;20.60;99.90;;;;;;5080658;28;20132;-66
2022/06/24 12:40:31;;;;;;;23.75;13.80;;;20.70;99.90;;;;;;5083799;28;20044;-65
2022/06/24 12:43:14;;;;;;;17.42;13.60;;;20.70;99.90;;;;;;5077947;28;20091;-66
2022/06/24 12:45:42;;;;;;;16.08;14.45;;;20.90;99.90;;;;;;5078754;28;20040;-66